createdAt,value
2022-11-30T00:01:30.620Z,99904.47
2022-11-30T00:03:58.492Z,99907.09
2022-11-30T00:06:26.085Z,99897.94
2022-11-30T00:08:58.327Z,99902.22
2022-11-30T00:11:28.843Z,99902.81
2022-11-30T00:13:56.835Z,99896.59
2022-11-30T00:16:24.401Z,99899.53
2022-11-30T00:18:52.098Z,99898.09
2022-11-30T00:21:20.165Z,99900.00
2022-11-30T00:23:48.616Z,99901.25
2022-11-30T00:26:18.835Z,99901.81
2022-11-30T00:28:47.556Z,99905.09
2022-11-30T00:31:18.111Z,99897.09
2022-11-30T00:33:46.228Z,99904.56
2022-11-30T00:36:22.727Z,99905.31
2022-11-30T00:38:52.733Z,99909.16
2022-11-30T00:41:21.239Z,99910.75
2022-11-30T00:43:49.105Z,99904.47
2022-11-30T00:46:16.779Z,99909.97
2022-11-30T00:48:44.443Z,99904.06
2022-11-30T00:51:12.986Z,99896.84
2022-11-30T00:53:41.580Z,99903.59
2022-11-30T00:56:10.394Z,99896.34
2022-11-30T00:58:37.861Z,99889.44
2022-11-30T01:01:06.730Z,99900.38
2022-11-30T01:03:35.064Z,99885.97
2022-11-30T01:06:08.482Z,99884.38
2022-11-30T01:08:36.587Z,99897.06
2022-11-30T01:11:24.130Z,99897.97
2022-11-30T01:13:52.938Z,99895.44
2022-11-30T01:16:31.467Z,99893.75
2022-11-30T01:18:59.293Z,99897.44
2022-11-30T01:21:29.278Z,99890.31
2022-11-30T01:23:57.380Z,99900.13
2022-11-30T01:26:26.001Z,99890.22
2022-11-30T01:28:55.554Z,99893.91
2022-11-30T01:31:25.241Z,99893.97
2022-11-30T01:33:55.351Z,99902.75
2022-11-30T01:36:27.456Z,99907.72
2022-11-30T01:38:57.708Z,99894.88
2022-11-30T01:41:31.542Z,99899.06
2022-11-30T01:44:20.316Z,99899.69
2022-11-30T01:46:59.864Z,99886.53
2022-11-30T01:49:42.658Z,99886.75
2022-11-30T01:52:14.790Z,99885.56
2022-11-30T01:54:52.192Z,99886.84
2022-11-30T01:57:31.005Z,99883.13
2022-11-30T02:00:02.332Z,99885.50
2022-11-30T02:03:03.388Z,99884.41
2022-11-30T02:05:34.954Z,99883.09
2022-11-30T02:08:02.864Z,99881.00
2022-11-30T02:10:34.987Z,99876.47
2022-11-30T02:13:39.937Z,99880.22
2022-11-30T02:16:18.865Z,99880.22
2022-11-30T02:19:11.871Z,99878.34
2022-11-30T02:22:34.151Z,99875.84
2022-11-30T02:25:33.203Z,99878.41
2022-11-30T02:28:59.634Z,99880.00
2022-11-30T02:31:43.783Z,99879.13
2022-11-30T02:34:15.984Z,99882.00
2022-11-30T02:36:46.547Z,99874.66
2022-11-30T02:39:14.117Z,99880.53
2022-11-30T02:41:42.326Z,99882.34
2022-11-30T02:44:12.250Z,99881.94
2022-11-30T02:46:53.378Z,99876.34
2022-11-30T02:49:34.396Z,99887.22
2022-11-30T02:52:03.436Z,99887.09
2022-11-30T02:54:30.946Z,99889.66
2022-11-30T02:56:58.853Z,99889.59
2022-11-30T02:59:26.443Z,99896.53
2022-11-30T03:01:53.953Z,99904.97
2022-11-30T03:04:22.770Z,99909.25
2022-11-30T03:06:50.370Z,99905.34
2022-11-30T03:09:18.005Z,99899.13
2022-11-30T03:11:45.588Z,99897.44
2022-11-30T03:14:13.299Z,99897.56
2022-11-30T03:16:40.987Z,99898.50
2022-11-30T03:19:08.650Z,99897.56
2022-11-30T03:21:36.273Z,99900.69
2022-11-30T03:24:03.890Z,99892.47
2022-11-30T03:26:31.673Z,99893.75
2022-11-30T03:28:59.176Z,99901.88
2022-11-30T03:31:26.770Z,99903.78
2022-11-30T03:33:54.440Z,99899.97
2022-11-30T03:36:21.919Z,99908.00
2022-11-30T03:38:49.495Z,99907.53
2022-11-30T03:41:18.928Z,99908.88
2022-11-30T03:43:47.611Z,99910.31
2022-11-30T03:46:15.528Z,99907.00
2022-11-30T03:48:45.153Z,99907.78
2022-11-30T03:51:14.256Z,99911.53
2022-11-30T03:53:42.473Z,99911.47
2022-11-30T03:56:11.431Z,99909.81
2022-11-30T03:58:39.732Z,99913.78
2022-11-30T04:01:13.704Z,99911.03
2022-11-30T04:03:42.413Z,99909.69
2022-11-30T04:06:12.318Z,99912.25
2022-11-30T04:08:40.592Z,99906.09
2022-11-30T04:11:09.819Z,99917.72
2022-11-30T04:13:39.064Z,99928.72
2022-11-30T04:16:07.932Z,99923.66
2022-11-30T04:18:37.726Z,99927.13
2022-11-30T04:21:07.358Z,99934.66
2022-11-30T04:23:40.581Z,99928.00
2022-11-30T04:26:12.722Z,99932.75
2022-11-30T04:28:40.894Z,99934.06
2022-11-30T04:31:09.494Z,99936.22
2022-11-30T04:33:37.440Z,99934.66
2022-11-30T04:36:07.227Z,99938.88
2022-11-30T04:38:36.159Z,99938.81
2022-11-30T04:41:08.913Z,99938.44
2022-11-30T04:43:37.082Z,99939.88
2022-11-30T04:46:06.265Z,99932.31
2022-11-30T04:48:34.251Z,99935.72
2022-11-30T04:51:06.149Z,99929.13
2022-11-30T04:53:35.996Z,99927.84
2022-11-30T04:56:08.857Z,99935.66
2022-11-30T04:58:37.033Z,99939.03
2022-11-30T05:01:04.586Z,99938.88
2022-11-30T05:03:32.064Z,99938.00
2022-11-30T05:05:59.590Z,99939.81
2022-11-30T05:08:27.166Z,99934.59
2022-11-30T05:10:57.553Z,99942.44
2022-11-30T05:13:26.417Z,99931.94
2022-11-30T05:15:54.312Z,99932.00
2022-11-30T05:18:22.305Z,99939.81
2022-11-30T05:20:51.789Z,99945.28
2022-11-30T05:23:20.548Z,99944.50
2022-11-30T05:25:48.854Z,99947.63
2022-11-30T05:28:17.340Z,99954.13
2022-11-30T05:30:45.433Z,99960.06
2022-11-30T05:33:13.335Z,99963.19
2022-11-30T05:35:41.072Z,99970.97
2022-11-30T05:38:08.574Z,99966.34
2022-11-30T05:40:36.665Z,99961.38
2022-11-30T05:43:06.088Z,99967.34
2022-11-30T05:45:33.710Z,99962.94
2022-11-30T05:48:01.185Z,99962.41
2022-11-30T05:50:28.959Z,99965.72
2022-11-30T05:52:56.976Z,99976.31
2022-11-30T05:55:26.224Z,99977.66
2022-11-30T05:57:54.205Z,99977.16
2022-11-30T06:00:22.687Z,99974.03
2022-11-30T06:02:56.899Z,99981.84
2022-11-30T06:05:25.263Z,99978.69
2022-11-30T06:07:52.935Z,99985.41
2022-11-30T06:10:20.871Z,99986.34
2022-11-30T06:12:48.960Z,99987.38
2022-11-30T06:15:16.579Z,99992.16
2022-11-30T06:17:44.072Z,99997.84
2022-11-30T06:20:12.095Z,99992.72
2022-11-30T06:22:39.576Z,99997.38
2022-11-30T06:25:07.373Z,100006.47
2022-11-30T06:27:34.904Z,99997.03
2022-11-30T06:30:04.092Z,100005.88
2022-11-30T06:32:31.655Z,100000.59
2022-11-30T06:37:40.805Z,100010.09
2022-11-30T06:40:11.197Z,100000.44
2022-11-30T06:42:41.682Z,100002.25
2022-11-30T06:45:10.625Z,100008.50
2022-11-30T06:47:38.318Z,100011.88
2022-11-30T06:50:08.273Z,100012.13
2022-11-30T06:52:35.963Z,100007.50
2022-11-30T06:55:03.904Z,100011.50
2022-11-30T06:57:32.192Z,100018.72
2022-11-30T06:59:59.698Z,100022.97
2022-11-30T07:02:27.259Z,100023.38
2022-11-30T07:04:54.962Z,100025.09
2022-11-30T07:07:22.661Z,100024.03
2022-11-30T07:09:52.143Z,100023.75
2022-11-30T07:12:19.698Z,100033.63
2022-11-30T07:14:47.614Z,100026.09
2022-11-30T07:17:15.285Z,100029.25
2022-11-30T07:19:42.846Z,100028.75
2022-11-30T07:22:10.448Z,100033.28
2022-11-30T07:24:56.682Z,100022.81
2022-11-30T07:27:24.425Z,100030.09
2022-11-30T07:29:52.644Z,100028.75
2022-11-30T07:32:20.700Z,100030.66
2022-11-30T07:34:48.675Z,100029.28
2022-11-30T07:37:16.301Z,100034.84
2022-11-30T07:39:47.373Z,100036.69
2022-11-30T07:42:14.997Z,100023.97
2022-11-30T07:44:42.885Z,100033.31
2022-11-30T07:47:10.632Z,100033.88
2022-11-30T07:49:39.874Z,100038.56
2022-11-30T07:52:08.346Z,100039.69
2022-11-30T07:54:36.031Z,100036.88
2022-11-30T07:57:03.611Z,100033.63
2022-11-30T07:59:31.148Z,100041.38
2022-11-30T08:01:58.835Z,100032.53
2022-11-30T08:04:26.650Z,100025.53
2022-11-30T08:06:55.412Z,100034.81
2022-11-30T08:09:23.019Z,100040.53
2022-11-30T08:11:50.705Z,100044.38
2022-11-30T08:14:18.262Z,100043.44
2022-11-30T08:16:45.886Z,100045.38
2022-11-30T08:19:13.452Z,100039.88
2022-11-30T08:21:41.044Z,100043.03
2022-11-30T08:24:14.028Z,100048.78
2022-11-30T08:26:41.941Z,100044.41
2022-11-30T08:29:14.113Z,100040.22
2022-11-30T08:31:41.745Z,100040.97
2022-11-30T08:34:13.406Z,100044.47
2022-11-30T08:36:47.274Z,100039.16
2022-11-30T08:39:19.577Z,100046.47
2022-11-30T08:41:47.534Z,100036.53
2022-11-30T08:44:16.624Z,100035.50
2022-11-30T08:46:52.411Z,100040.16
2022-11-30T08:49:23.002Z,100036.88
2022-11-30T08:57:34.406Z,100028.16
2022-11-30T09:00:02.077Z,100033.22
2022-11-30T09:02:29.580Z,100025.38
2022-11-30T09:04:57.176Z,100025.47
2022-11-30T09:07:24.648Z,100027.72
2022-11-30T09:09:52.131Z,100015.78
2022-11-30T09:12:19.731Z,100016.63
2022-11-30T09:14:55.639Z,100023.97
2022-11-30T09:17:25.151Z,100019.91
2022-11-30T09:19:52.791Z,100018.44
2022-11-30T09:22:20.325Z,100018.34
2022-11-30T09:24:48.073Z,100016.75
2022-11-30T09:27:15.772Z,100019.88
2022-11-30T09:29:43.285Z,100026.13
2022-11-30T09:32:10.834Z,100022.00
2022-11-30T09:34:38.477Z,100019.47
2022-11-30T09:37:06.272Z,100020.78
2022-11-30T09:39:36.950Z,100024.97
2022-11-30T09:42:25.808Z,100023.97
2022-11-30T09:45:08.412Z,100020.81
2022-11-30T09:47:59.944Z,100014.25
2022-11-30T09:50:33.870Z,100010.88
2022-11-30T09:53:29.704Z,100007.41
2022-11-30T09:55:59.094Z,100016.91
2022-11-30T09:58:55.464Z,100011.84
2022-11-30T10:01:23.716Z,100009.97
2022-11-30T10:03:51.436Z,100007.63
2022-11-30T10:06:26.992Z,100016.63
2022-11-30T10:09:26.146Z,100017.31
2022-11-30T10:12:24.494Z,100006.84
2022-11-30T10:15:32.204Z,100018.44
2022-11-30T10:18:08.769Z,100015.28
2022-11-30T10:20:59.065Z,100014.19
2022-11-30T10:23:43.489Z,100018.63
2022-11-30T10:26:16.598Z,100019.47
2022-11-30T10:28:54.284Z,100021.09
2022-11-30T10:31:39.291Z,100015.47
2022-11-30T10:34:21.355Z,100019.63
2022-11-30T10:36:55.753Z,100007.28
2022-11-30T10:39:33.649Z,100011.16
2022-11-30T10:42:13.132Z,100011.97
2022-11-30T10:44:49.817Z,100012.53
2022-11-30T10:47:24.123Z,100013.75
2022-11-30T10:49:53.364Z,100011.63
2022-11-30T10:52:31.125Z,100008.44
2022-11-30T10:55:04.579Z,100010.78
2022-11-30T10:57:33.970Z,100009.81
2022-11-30T11:00:06.930Z,100013.25
2022-11-30T11:02:46.010Z,100012.94
2022-11-30T11:05:25.430Z,100013.78
2022-11-30T11:08:06.345Z,100014.50
2022-11-30T11:10:47.803Z,100006.75
2022-11-30T11:13:42.644Z,100013.53
2022-11-30T11:16:14.310Z,100009.03
2022-11-30T11:18:57.506Z,100004.41
2022-11-30T11:21:25.805Z,100003.91
2022-11-30T11:23:58.492Z,99999.66
2022-11-30T11:26:31.769Z,99997.03
2022-11-30T11:28:59.903Z,99995.28
2022-11-30T11:31:47.431Z,99998.91
2022-11-30T11:34:34.780Z,99995.19
2022-11-30T11:37:18.025Z,99990.88
2022-11-30T11:40:16.215Z,99995.81
2022-11-30T11:42:47.692Z,99994.50
2022-11-30T11:45:26.066Z,99995.47
2022-11-30T11:48:08.256Z,99992.66
2022-11-30T11:53:54.313Z,99997.25
2022-11-30T11:56:27.986Z,99988.38
2022-11-30T11:59:13.046Z,99993.69
2022-11-30T12:02:18.881Z,99991.69
2022-11-30T12:04:53.044Z,99994.88
2022-11-30T12:08:07.650Z,99988.00
2022-11-30T12:10:53.029Z,99996.63
2022-11-30T12:13:26.595Z,99991.13
2022-11-30T12:16:12.332Z,99986.06
2022-11-30T12:19:08.804Z,99988.66
2022-11-30T12:22:15.718Z,100001.34
2022-11-30T12:25:06.191Z,99998.34
2022-11-30T12:27:55.407Z,99996.66
2022-11-30T12:31:15.465Z,100002.13
2022-11-30T12:34:17.343Z,100002.84
2022-11-30T12:37:05.276Z,99991.06
2022-11-30T12:39:44.407Z,99996.56
2022-11-30T12:42:22.287Z,100001.72
2022-11-30T12:45:28.757Z,100001.09
2022-11-30T12:48:34.981Z,100001.50
2022-11-30T12:51:17.551Z,100005.63
2022-11-30T12:54:41.715Z,100015.63
2022-11-30T12:57:35.209Z,100013.19
2022-11-30T13:00:17.922Z,100016.81
2022-11-30T13:03:16.695Z,100015.16
2022-11-30T13:05:51.629Z,100019.84
2022-11-30T13:08:34.444Z,100018.69
2022-11-30T13:11:18.197Z,100025.66
2022-11-30T13:13:57.415Z,100022.69
2022-11-30T13:16:28.952Z,100026.34
2022-11-30T13:19:38.096Z,100025.03
2022-11-30T13:22:17.581Z,100021.59
2022-11-30T13:25:07.442Z,100025.19
2022-11-30T13:27:47.626Z,100027.91
2022-11-30T13:30:21.364Z,100030.25
2022-11-30T13:32:57.788Z,100018.47
2022-11-30T13:35:29.177Z,100026.81
2022-11-30T13:38:36.827Z,100016.56
2022-11-30T13:41:10.476Z,100021.63
2022-11-30T13:43:47.825Z,100016.84
2022-11-30T13:46:23.845Z,100021.81
2022-11-30T13:49:20.898Z,100013.91
2022-11-30T13:52:07.073Z,100011.28
2022-11-30T13:54:50.309Z,100012.84
2022-11-30T13:57:25.301Z,100011.00
2022-11-30T13:59:58.195Z,100006.53
2022-11-30T14:05:37.875Z,100016.91
2022-11-30T14:08:12.055Z,100016.97
2022-11-30T14:10:46.495Z,100009.84
2022-11-30T14:13:16.179Z,100014.75
2022-11-30T14:15:43.688Z,100020.06
2022-11-30T14:18:11.128Z,100020.91
2022-11-30T14:20:48.830Z,100022.69
2022-11-30T14:23:29.794Z,100022.63
2022-11-30T14:26:11.510Z,100020.41
2022-11-30T14:28:58.814Z,100014.59
2022-11-30T14:31:31.039Z,100020.66
2022-11-30T14:34:29.910Z,100023.53
2022-11-30T14:37:04.193Z,100019.81
2022-11-30T14:39:42.083Z,100031.38
2022-11-30T14:42:28.513Z,100026.19
2022-11-30T14:44:57.406Z,100026.44
2022-11-30T14:47:32.138Z,100020.97
2022-11-30T14:50:04.345Z,100021.63
2022-11-30T14:52:59.132Z,100028.13
2022-11-30T14:55:53.512Z,100026.69
2022-11-30T14:58:51.767Z,100025.78
2022-11-30T15:01:26.615Z,100025.31
2022-11-30T15:04:00.835Z,100017.31
2022-11-30T15:06:33.219Z,100023.09
2022-11-30T15:09:05.859Z,100023.78
2022-11-30T15:11:33.430Z,100025.63
2022-11-30T15:14:11.579Z,100028.31
2022-11-30T15:16:48.083Z,100035.56
2022-11-30T15:19:37.478Z,100026.16
2022-11-30T15:22:06.519Z,100034.97
2022-11-30T15:24:34.084Z,100037.50
2022-11-30T15:27:11.224Z,100036.00
2022-11-30T15:29:45.702Z,100034.53
2022-11-30T15:32:19.874Z,100043.44
2022-11-30T15:34:56.752Z,100036.63
2022-11-30T15:37:38.761Z,100042.66
2022-11-30T15:40:09.149Z,100038.16
2022-11-30T15:42:40.497Z,100050.94
2022-11-30T15:45:30.187Z,100044.72
2022-11-30T15:48:02.407Z,100050.03
2022-11-30T15:50:29.953Z,100049.69
2022-11-30T15:53:35.024Z,100057.88
2022-11-30T15:56:08.137Z,100057.88
2022-11-30T15:58:46.109Z,100055.25
2022-11-30T16:01:26.004Z,100048.56
2022-11-30T16:03:58.179Z,100048.03
2022-11-30T16:06:27.856Z,100055.59
2022-11-30T16:08:56.290Z,100053.09
2022-11-30T16:11:23.901Z,100058.31
2022-11-30T16:13:51.467Z,100067.34
2022-11-30T16:16:28.493Z,100063.00
2022-11-30T16:18:56.234Z,100065.72
2022-11-30T16:21:23.847Z,100065.75
2022-11-30T16:23:51.367Z,100065.75
2022-11-30T16:26:49.592Z,100069.16
2022-11-30T16:29:10.422Z,100082.38
2022-11-30T16:31:38.816Z,100074.63
2022-11-30T16:34:08.791Z,100085.06
2022-11-30T16:36:39.021Z,100081.09
2022-11-30T16:39:06.882Z,100076.19
2022-11-30T16:41:36.213Z,100072.25
2022-11-30T16:44:03.787Z,100069.06
2022-11-30T16:46:31.863Z,100068.31
2022-11-30T16:48:59.466Z,100072.00
2022-11-30T16:51:35.117Z,100067.53
2022-11-30T16:54:03.560Z,100071.78
2022-11-30T16:56:32.542Z,100074.69
2022-11-30T16:59:00.325Z,100071.00
2022-11-30T17:01:48.643Z,100072.63
2022-11-30T17:04:22.907Z,100073.69
2022-11-30T17:06:53.651Z,100076.03
2022-11-30T17:09:25.014Z,100076.19
2022-11-30T17:11:54.151Z,100080.91
2022-11-30T17:14:22.444Z,100074.16
2022-11-30T17:16:50.118Z,100072.91
2022-11-30T17:19:17.756Z,100079.59
2022-11-30T17:21:45.934Z,100083.53
2022-11-30T17:24:15.921Z,100074.66
2022-11-30T17:26:43.766Z,100085.84
2022-11-30T17:29:11.320Z,100087.22
2022-11-30T17:31:38.995Z,100087.44
2022-11-30T17:34:12.352Z,100074.69
2022-11-30T17:36:39.988Z,100084.53
2022-11-30T17:39:09.048Z,100090.78
2022-11-30T17:41:56.665Z,100093.38
2022-11-30T17:44:30.565Z,100087.59
2022-11-30T17:46:58.759Z,100087.94
2022-11-30T17:49:27.765Z,100090.00
2022-11-30T17:52:19.869Z,100091.59
2022-11-30T17:54:48.114Z,100086.75
2022-11-30T17:57:16.431Z,100091.00
2022-11-30T17:59:44.111Z,100093.28
2022-11-30T18:02:14.302Z,100088.34
2022-11-30T18:04:53.189Z,100077.13
2022-11-30T18:07:25.505Z,100092.09
2022-11-30T18:09:53.289Z,100088.94
2022-11-30T18:12:22.287Z,100089.63
2022-11-30T18:14:51.138Z,100087.84
2022-11-30T18:17:18.873Z,100085.75
2022-11-30T18:19:52.747Z,100077.06
2022-11-30T18:22:20.848Z,100086.66
2022-11-30T18:24:48.672Z,100087.06
2022-11-30T18:27:17.817Z,100088.59
2022-11-30T18:29:51.355Z,100095.34
2022-11-30T18:32:23.730Z,100085.81
2022-11-30T18:34:52.897Z,100087.81
2022-11-30T18:37:20.599Z,100093.00
2022-11-30T18:39:51.382Z,100098.00
2022-11-30T18:42:20.671Z,100085.25
2022-11-30T18:44:50.715Z,100095.31
2022-11-30T18:47:20.970Z,100085.41
2022-11-30T18:49:49.784Z,100088.28
2022-11-30T18:52:22.344Z,100100.00
2022-11-30T18:54:50.782Z,100101.66
2022-11-30T18:57:22.824Z,100098.06
2022-11-30T18:59:53.867Z,100104.25
2022-11-30T19:02:22.720Z,100092.31
2022-11-30T19:04:54.035Z,100101.84
2022-11-30T19:07:22.977Z,100100.06
2022-11-30T19:09:52.291Z,100104.56
2022-11-30T19:12:24.400Z,100096.97
2022-11-30T19:14:52.589Z,100100.56
2022-11-30T19:17:23.750Z,100095.91
2022-11-30T19:19:51.565Z,100101.09
2022-11-30T19:22:22.682Z,100097.84
2022-11-30T19:24:51.353Z,100105.97
2022-11-30T19:27:22.240Z,100104.75
2022-11-30T19:29:50.088Z,100106.56
2022-11-30T19:32:17.951Z,100110.28
2022-11-30T19:34:45.773Z,100107.94
2022-11-30T19:37:15.325Z,100107.09
2022-11-30T19:39:43.411Z,100111.84
2022-11-30T19:42:11.570Z,100109.03
2022-11-30T19:44:42.995Z,100110.94
2022-11-30T19:47:13.506Z,100116.53
2022-11-30T19:49:47.083Z,100120.06
2022-11-30T19:52:16.571Z,100118.38
2022-11-30T19:54:45.356Z,100118.00
2022-11-30T19:57:13.415Z,100113.84
2022-11-30T19:59:42.474Z,100114.28
2022-11-30T20:02:12.499Z,100116.53
2022-11-30T20:04:41.198Z,100117.97
2022-11-30T20:07:08.981Z,100112.28
2022-11-30T20:09:36.760Z,100113.22
2022-11-30T20:12:05.348Z,100120.47
2022-11-30T20:14:42.791Z,100111.75
2022-11-30T20:17:13.025Z,100112.41
2022-11-30T20:19:47.267Z,100114.28
2022-11-30T20:22:18.452Z,100118.72
2022-11-30T20:24:51.233Z,100121.09
2022-11-30T20:27:24.011Z,100125.03
2022-11-30T20:29:56.626Z,100121.63
2022-11-30T20:32:24.650Z,100124.50
2022-11-30T20:34:55.641Z,100129.00
2022-11-30T20:37:23.513Z,100124.91
2022-11-30T20:39:52.062Z,100129.34
2022-11-30T20:42:21.973Z,100128.88
2022-11-30T20:44:50.991Z,100136.72
2022-11-30T20:47:18.744Z,100142.41
2022-11-30T20:49:46.971Z,100136.09
2022-11-30T20:52:15.071Z,100129.75
2022-11-30T20:54:44.481Z,100128.97
2022-11-30T20:57:13.843Z,100125.38
2022-11-30T20:59:43.217Z,100130.25
2022-11-30T21:02:11.613Z,100129.28
2022-11-30T21:04:39.233Z,100124.97
2022-11-30T21:07:06.990Z,100121.69
2022-11-30T21:09:34.492Z,100121.66
2022-11-30T21:12:01.988Z,100131.94
2022-11-30T21:14:29.671Z,100132.72
2022-11-30T21:16:57.175Z,100133.31
2022-11-30T21:19:24.881Z,100136.31
2022-11-30T21:21:52.423Z,100135.34
2022-11-30T21:24:19.962Z,100134.34
2022-11-30T21:26:47.536Z,100131.22
2022-11-30T21:29:19.173Z,100134.56
2022-11-30T21:31:47.181Z,100123.94
2022-11-30T21:34:15.168Z,100113.28
2022-11-30T21:36:42.904Z,100122.91
2022-11-30T21:39:14.087Z,100127.09
2022-11-30T21:41:42.419Z,100132.25
2022-11-30T21:44:14.971Z,100134.44
2022-11-30T21:46:45.705Z,100138.41
2022-11-30T21:49:15.474Z,100129.84
2022-11-30T21:51:44.053Z,100134.31
2022-11-30T21:54:13.653Z,100136.94
2022-11-30T21:56:43.814Z,100130.84
2022-11-30T21:59:14.690Z,100137.84
2022-11-30T22:01:44.368Z,100128.81
2022-11-30T22:04:14.344Z,100127.19
2022-11-30T22:06:43.796Z,100128.03
2022-11-30T22:09:15.667Z,100125.94
2022-11-30T22:11:45.923Z,100133.72
2022-11-30T22:14:16.665Z,100137.16
2022-11-30T22:16:44.951Z,100133.56
2022-11-30T22:19:12.509Z,100136.63
2022-11-30T22:21:42.955Z,100131.81
2022-11-30T22:24:14.146Z,100134.78
2022-11-30T22:26:46.237Z,100119.56
2022-11-30T22:29:18.988Z,100119.91
2022-11-30T22:31:49.447Z,100114.47
2022-11-30T22:34:17.287Z,100123.94
2022-11-30T22:36:46.681Z,100122.38
2022-11-30T22:39:18.980Z,100112.34
2022-11-30T22:41:54.689Z,100118.31
2022-11-30T22:44:23.382Z,100119.59
2022-11-30T22:46:51.011Z,100123.59
2022-11-30T22:49:21.594Z,100105.31
2022-11-30T22:51:50.570Z,100100.84
2022-11-30T22:54:18.673Z,100092.84
2022-11-30T22:56:47.174Z,100100.97
2022-11-30T22:59:16.024Z,100099.56
2022-11-30T23:01:46.932Z,100096.59
2022-11-30T23:04:20.803Z,100095.00
2022-11-30T23:06:50.115Z,100092.69
2022-11-30T23:09:23.069Z,100086.88
2022-11-30T23:11:52.184Z,100093.13
2022-11-30T23:14:19.848Z,100092.75
2022-11-30T23:16:47.666Z,100078.78
2022-11-30T23:19:15.812Z,100091.03
2022-11-30T23:21:45.516Z,100095.38
2022-11-30T23:24:20.809Z,100094.03
2022-11-30T23:26:49.780Z,100088.38
2022-11-30T23:29:18.616Z,100081.09
2022-11-30T23:31:47.292Z,100088.03
2022-11-30T23:34:19.383Z,100084.38
2022-11-30T23:36:47.612Z,100081.41
2022-11-30T23:39:18.202Z,100085.53
2022-11-30T23:41:46.104Z,100090.13
2022-11-30T23:44:13.806Z,100077.41
2022-11-30T23:46:42.812Z,100073.09
2022-11-30T23:49:14.134Z,100075.56
2022-11-30T23:51:42.536Z,100071.31
2022-11-30T23:54:10.052Z,100080.16
2022-11-30T23:56:37.502Z,100075.75
2022-11-30T23:59:06.039Z,100074.13
